Time;durP1;ratioP1;P1;durP2;ratioP2;P2;SDS_P1;SDS_P2;PMS_P1;PMS_P2;Temp;Humidity;BMP_temperature;BMP_pressure;BME280_temperature;BME280_humidity;BME280_pressure;Samples;Min_cycle;Max_cycle;Signal;HPM_P1;HPM_P2
2022/04/19 00:00:28;;;;;;;2.17;1.38;;;20.90;45.20;;;;;;5048602;28;20048;-72
2022/04/19 00:02:54;;;;;;;1.60;1.38;;;20.90;45.20;;;;;;5048050;28;20131;-74
2022/04/19 00:05:19;;;;;;;2.05;1.50;;;20.80;45.20;;;;;;5048906;28;20067;-74
2022/04/19 00:07:45;;;;;;;2.03;1.30;;;20.80;45.20;;;;;;5043940;28;20032;-74
2022/04/19 00:10:11;;;;;;;2.08;1.60;;;20.80;45.20;;;;;;5056177;28;20064;-73
2022/04/19 00:12:37;;;;;;;4.22;1.52;;;20.80;45.20;;;;;;5045951;28;20059;-73
2022/04/19 00:15:04;;;;;;;2.60;1.40;;;20.80;45.20;;;;;;5063066;28;20052;-74
2022/04/19 00:17:30;;;;;;;2.50;1.58;;;20.80;45.30;;;;;;5050245;28;20052;-73
2022/04/19 00:19:55;;;;;;;2.60;1.52;;;20.80;45.30;;;;;;5067311;28;20048;-73
2022/04/19 00:22:21;;;;;;;1.85;1.38;;;20.70;45.30;;;;;;5061255;28;20041;-75
2022/04/19 00:24:47;;;;;;;1.90;1.30;;;20.80;45.30;;;;;;5074073;28;20032;-74
2022/04/19 00:27:13;;;;;;;1.65;1.50;;;20.70;45.40;;;;;;5067201;28;20463;-74
2022/04/19 00:29:41;;;;;;;2.78;1.65;;;20.70;45.40;;;;;;5060927;28;20451;-75
2022/04/19 00:32:08;;;;;;;1.95;1.45;;;20.70;45.40;;;;;;5067504;28;20051;-73
2022/04/19 00:34:34;;;;;;;1.83;1.50;;;20.70;45.40;;;;;;5054856;28;20131;-75
2022/04/19 00:37:01;;;;;;;2.45;1.45;;;20.70;45.40;;;;;;5070963;28;20127;-73
2022/04/19 00:39:26;;;;;;;2.00;1.40;;;20.70;45.50;;;;;;5051258;28;20036;-74
2022/04/19 00:41:52;;;;;;;2.30;1.40;;;20.70;45.40;;;;;;5067478;28;20089;-74
2022/04/19 00:44:18;;;;;;;1.83;1.42;;;20.70;45.50;;;;;;5055149;28;20431;-74
2022/04/19 00:46:43;;;;;;;1.63;1.40;;;20.60;45.40;;;;;;5059857;28;20334;-72
2022/04/19 00:49:09;;;;;;;2.42;1.42;;;20.60;45.50;;;;;;5060368;28;20080;-73
2022/04/19 00:51:35;;;;;;;1.80;1.48;;;20.60;46.30;;;;;;5066724;28;20040;-73
2022/04/19 00:54:02;;;;;;;2.50;1.70;;;20.60;45.50;;;;;;5060767;28;20056;-76
2022/04/19 00:56:29;;;;;;;2.35;1.50;;;20.60;45.50;;;;;;5064316;28;20836;-73
2022/04/19 00:58:56;;;;;;;1.65;1.35;;;20.60;45.60;;;;;;5051782;28;20382;-74
2022/04/19 01:01:22;;;;;;;1.67;1.58;;;20.60;45.50;;;;;;5065702;28;20093;-73
2022/04/19 01:03:47;;;;;;;2.22;1.35;;;20.60;45.60;;;;;;5074055;28;20523;-73
2022/04/19 01:06:13;;;;;;;2.85;1.73;;;20.60;45.60;;;;;;5047679;28;20044;-73
2022/04/19 01:08:39;;;;;;;2.22;1.50;;;20.60;45.70;;;;;;5048512;28;20446;-73
2022/04/19 01:13:53;;;;;;;2.25;1.70;;;20.50;45.60;;;;;;5076604;28;20080;-74
2022/04/19 01:16:18;;;;;;;1.88;1.52;;;20.50;45.70;;;;;;5068415;28;20109;-75
2022/04/19 01:18:45;;;;;;;2.42;1.45;;;20.50;45.70;;;;;;5060073;28;20580;-73
2022/04/19 01:21:10;;;;;;;1.75;1.42;;;20.50;45.70;;;;;;5056462;28;20083;-75
2022/04/19 01:23:38;;;;;;;2.13;1.52;;;20.50;45.70;;;;;;5081094;28;20923;-73
2022/04/19 01:26:06;;;;;;;2.85;1.50;;;20.50;45.70;;;;;;5050843;28;20074;-75
2022/04/19 01:28:32;;;;;;;1.80;1.50;;;20.50;45.70;;;;;;5034561;28;20040;-75
2022/04/19 01:30:58;;;;;;;2.35;1.70;;;20.50;45.70;;;;;;5067863;28;20034;-73
2022/04/19 01:33:24;;;;;;;1.67;1.40;;;20.50;45.80;;;;;;5078411;28;20059;-73
2022/04/19 01:35:50;;;;;;;1.50;1.40;;;20.40;45.70;;;;;;5067720;28;20135;-75
2022/04/19 01:38:15;;;;;;;3.58;1.60;;;20.40;45.70;;;;;;5069499;28;20059;-73
2022/04/19 01:40:41;;;;;;;3.05;1.63;;;20.40;45.70;;;;;;5068557;28;20127;-74
2022/04/19 01:43:07;;;;;;;2.85;1.63;;;20.40;45.70;;;;;;5087065;28;20764;-74
2022/04/19 01:45:33;;;;;;;3.25;1.85;;;20.50;45.70;;;;;;5069794;28;20040;-74
2022/04/19 01:48:00;;;;;;;3.30;1.80;;;20.40;45.60;;;;;;5068684;28;20449;-75
2022/04/19 01:50:28;;;;;;;2.30;1.77;;;20.40;45.70;;;;;;5061235;28;20039;-72
2022/04/19 01:52:56;;;;;;;2.35;1.80;;;20.40;45.70;;;;;;5070148;28;20119;-73
2022/04/19 01:55:22;;;;;;;3.42;1.70;;;20.40;45.60;;;;;;5065842;28;20036;-74
2022/04/19 01:57:49;;;;;;;2.42;1.80;;;20.40;45.60;;;;;;5052863;28;20684;-73
2022/04/19 02:00:15;;;;;;;2.10;1.70;;;20.40;45.60;;;;;;5061360;28;20122;-74
2022/04/19 02:02:43;;;;;;;2.67;1.90;;;20.40;45.60;;;;;;5050571;28;20036;-74
2022/04/19 02:05:09;;;;;;;2.17;1.77;;;20.40;45.60;;;;;;5059795;28;20089;-73
2022/04/19 02:07:42;;;;;;;1.85;1.40;;;20.40;45.50;;;;;;5071001;28;20040;-73
2022/04/19 02:10:09;;;;;;;3.25;2.00;;;20.40;45.50;;;;;;5063418;28;20044;-74
2022/04/19 02:12:35;;;;;;;1.95;1.60;;;20.40;45.50;;;;;;5068304;28;20059;-73
2022/04/19 02:15:03;;;;;;;2.85;2.00;;;20.30;45.40;;;;;;5058366;28;20075;-74
2022/04/19 02:17:29;;;;;;;2.33;1.75;;;20.30;45.40;;;;;;5059356;28;20048;-73
2022/04/19 02:20:04;;;;;;;2.30;1.65;;;20.30;45.40;;;;;;5068490;28;20062;-74
2022/04/19 02:22:30;;;;;;;2.17;1.88;;;20.30;45.50;;;;;;5052765;28;20043;-75
2022/04/19 02:24:58;;;;;;;2.90;1.90;;;20.30;45.40;;;;;;5059814;28;20086;-74
2022/04/19 02:27:24;;;;;;;2.47;2.00;;;20.30;45.40;;;;;;5068365;28;20577;-73
2022/04/19 02:29:55;;;;;;;2.45;1.80;;;20.30;45.40;;;;;;5064174;28;20570;-73
2022/04/19 02:32:23;;;;;;;2.28;1.85;;;20.30;45.30;;;;;;5076988;28;20139;-74
2022/04/19 02:34:57;;;;;;;2.70;1.95;;;20.30;45.40;;;;;;5056503;28;20045;-72
2022/04/19 02:37:23;;;;;;;2.78;1.90;;;20.30;45.30;;;;;;5051104;28;20048;-73
2022/04/19 02:39:49;;;;;;;2.50;1.90;;;20.30;45.30;;;;;;5057507;28;20054;-73
2022/04/19 02:42:16;;;;;;;2.83;2.00;;;20.30;45.30;;;;;;5060792;28;20403;-73
2022/04/19 02:44:41;;;;;;;2.50;1.80;;;20.30;45.30;;;;;;5061490;28;20392;-73
2022/04/19 02:47:07;;;;;;;2.03;1.70;;;20.30;45.30;;;;;;5050574;28;20041;-73
2022/04/19 02:49:33;;;;;;;3.33;2.15;;;20.30;45.30;;;;;;5072197;28;20068;-73
2022/04/19 02:51:59;;;;;;;2.80;1.90;;;20.30;45.30;;;;;;5044643;28;20494;-73
2022/04/19 02:54:25;;;;;;;2.28;1.80;;;20.30;45.30;;;;;;5064269;28;20130;-74
2022/04/19 02:56:50;;;;;;;2.83;2.20;;;20.20;45.20;;;;;;5060121;28;20048;-74
2022/04/19 02:59:16;;;;;;;2.65;1.90;;;20.20;45.20;;;;;;5064894;28;20115;-72
2022/04/19 03:01:42;;;;;;;3.40;2.20;;;20.20;45.20;;;;;;5050320;28;20048;-73
2022/04/19 03:04:07;;;;;;;3.05;1.70;;;20.20;45.20;;;;;;5034634;28;20139;-73
2022/04/19 03:06:33;;;;;;;3.47;2.10;;;20.20;45.20;;;;;;5068146;28;20122;-73
2022/04/19 03:08:59;;;;;;;3.10;2.10;;;20.20;45.20;;;;;;5050870;28;20055;-74
2022/04/19 03:11:24;;;;;;;2.60;1.95;;;20.20;45.20;;;;;;5070445;28;20063;-73
2022/04/19 03:13:50;;;;;;;3.10;2.00;;;20.20;45.20;;;;;;5048449;28;20471;-74
2022/04/19 03:16:16;;;;;;;2.35;1.90;;;20.20;45.20;;;;;;5069479;28;20051;-72
2022/04/19 03:18:42;;;;;;;2.60;1.75;;;20.20;45.20;;;;;;5057421;28;20408;-74
2022/04/19 03:21:12;;;;;;;2.47;1.98;;;20.20;45.20;;;;;;5060727;28;20492;-75
2022/04/19 03:29:09;;;;;;;3.05;1.90;;;20.20;45.20;;;;;;5070565;28;20051;-74
2022/04/19 03:31:35;;;;;;;2.97;1.92;;;20.20;45.20;;;;;;5058286;28;20032;-74
2022/04/19 03:34:05;;;;;;;2.00;1.80;;;20.20;45.20;;;;;;5083024;28;20818;-75
2022/04/19 03:36:31;;;;;;;2.97;1.90;;;20.10;45.20;;;;;;5056112;28;20051;-74
2022/04/19 03:38:58;;;;;;;2.88;2.08;;;20.10;45.20;;;;;;5055450;28;20040;-79
2022/04/19 03:41:24;;;;;;;2.85;2.05;;;20.10;45.10;;;;;;5067321;28;20058;-73
2022/04/19 03:43:51;;;;;;;1.75;1.55;;;20.10;45.20;;;;;;5064330;28;20426;-73
2022/04/19 03:46:17;;;;;;;2.83;1.90;;;20.10;45.20;;;;;;5051733;28;20058;-73
2022/04/19 03:48:42;;;;;;;3.22;1.98;;;20.10;45.20;;;;;;5060375;28;20036;-73
2022/04/19 03:51:08;;;;;;;2.20;1.65;;;20.10;45.20;;;;;;5086719;28;20044;-74
2022/04/19 03:53:33;;;;;;;2.63;1.88;;;20.10;45.20;;;;;;5085543;28;20461;-74
2022/04/19 03:55:59;;;;;;;2.70;2.10;;;20.10;45.20;;;;;;5056842;28;20036;-74
2022/04/19 03:58:27;;;;;;;3.63;1.98;;;20.10;45.20;;;;;;5080692;28;20069;-75
2022/04/19 04:00:53;;;;;;;;;;;20.10;45.20;;;;;;5049904;28;20028;-74
2022/04/19 04:03:19;;;;;;;2.42;1.90;;;20.10;45.30;;;;;;5043256;28;20325;-74
2022/04/19 04:05:45;;;;;;;3.33;1.80;;;20.10;45.20;;;;;;5051233;28;20500;-73
2022/04/19 04:08:10;;;;;;;2.40;1.65;;;20.10;45.20;;;;;;5050080;28;20048;-73
2022/04/19 04:10:36;;;;;;;2.40;1.85;;;20.10;45.20;;;;;;5038626;28;20033;-73
2022/04/19 04:13:04;;;;;;;3.03;1.88;;;20.10;45.20;;;;;;5085899;28;20693;-74
2022/04/19 04:15:29;;;;;;;2.20;1.85;;;20.10;45.20;;;;;;5038222;28;20063;-74
2022/04/19 04:17:55;;;;;;;4.32;1.90;;;20.00;45.20;;;;;;5031977;28;20153;-74
2022/04/19 04:20:21;;;;;;;2.53;2.10;;;20.10;45.30;;;;;;5077348;28;20042;-73
2022/04/19 04:22:46;;;;;;;1.98;1.75;;;20.10;45.30;;;;;;5059225;28;20052;-73
2022/04/19 04:25:12;;;;;;;2.50;2.00;;;20.00;45.20;;;;;;5077181;28;20056;-74
2022/04/19 04:27:37;;;;;;;2.22;1.83;;;20.10;45.30;;;;;;5042812;28;20040;-72
2022/04/19 04:30:03;;;;;;;2.03;1.75;;;20.00;45.20;;;;;;5037672;28;20059;-73
2022/04/19 04:32:29;;;;;;;2.65;2.15;;;20.00;45.20;;;;;;5049648;28;20053;-75
2022/04/19 04:34:54;;;;;;;2.92;2.10;;;20.00;45.20;;;;;;5059124;28;20054;-73
2022/04/19 04:37:20;;;;;;;2.65;2.05;;;20.00;45.20;;;;;;5047666;28;20037;-73
2022/04/19 04:39:46;;;;;;;2.30;1.77;;;20.00;45.20;;;;;;5053841;28;20388;-74
2022/04/19 04:42:11;;;;;;;2.20;1.90;;;20.00;45.20;;;;;;5047106;28;20102;-73
2022/04/19 04:44:37;;;;;;;2.53;1.90;;;20.00;45.20;;;;;;5053316;28;20055;-74
2022/04/19 04:49:47;;;;;;;2.63;1.60;;;20.00;45.20;;;;;;5058005;28;20051;-74
2022/04/19 04:52:14;;;;;;;2.05;1.67;;;20.00;45.20;;;;;;5048928;28;20049;-73
2022/04/19 04:54:41;;;;;;;4.30;1.70;;;20.00;45.20;;;;;;5053334;28;20071;-72
2022/04/19 04:57:08;;;;;;;3.00;1.92;;;20.00;45.20;;;;;;5078323;28;20044;-74
2022/04/19 04:59:35;;;;;;;3.53;1.67;;;20.00;45.30;;;;;;5056437;28;20483;-73
2022/04/19 05:02:03;;;;;;;3.00;1.85;;;20.00;45.20;;;;;;5071286;28;20058;-73
2022/04/19 05:04:29;;;;;;;2.33;1.58;;;20.00;45.30;;;;;;5043761;28;20040;-72
2022/04/19 05:06:55;;;;;;;2.58;1.88;;;20.00;45.20;;;;;;5083513;28;20449;-74
2022/04/19 05:09:20;;;;;;;2.20;1.80;;;20.00;45.30;;;;;;5057817;28;20597;-75
2022/04/19 05:11:52;;;;;;;2.53;1.90;;;20.00;45.30;;;;;;5067748;28;20052;-73
2022/04/19 05:14:19;;;;;;;3.45;1.85;;;20.00;45.30;;;;;;5075272;28;20144;-73
2022/04/19 05:16:45;;;;;;;3.05;1.65;;;20.00;45.30;;;;;;5035144;28;20040;-73
2022/04/19 05:19:11;;;;;;;2.45;1.92;;;20.00;45.30;;;;;;5070717;28;20051;-73
2022/04/19 05:21:40;;;;;;;2.35;1.67;;;20.00;45.30;;;;;;5069999;28;20035;-72
2022/04/19 05:24:07;;;;;;;2.03;1.75;;;20.00;45.30;;;;;;5066704;28;20059;-74
2022/04/19 05:26:33;;;;;;;2.45;1.90;;;20.00;45.40;;;;;;5052683;28;20616;-74
2022/04/19 05:28:58;;;;;;;3.75;2.03;;;20.00;45.40;;;;;;5085262;28;20036;-77
2022/04/19 05:31:24;;;;;;;4.60;2.10;;;20.00;45.40;;;;;;5052201;28;20068;-73
2022/04/19 05:33:51;;;;;;;2.35;1.60;;;20.00;45.40;;;;;;5069400;28;20045;-72
2022/04/19 05:36:17;;;;;;;2.45;1.77;;;20.00;45.50;;;;;;5029547;28;20094;-72
2022/04/19 05:38:42;;;;;;;3.55;2.17;;;20.00;45.50;;;;;;5062943;28;20040;-71
2022/04/19 05:41:08;;;;;;;3.33;1.77;;;20.00;45.50;;;;;;5082076;28;20361;-73
2022/04/19 05:43:34;;;;;;;2.83;1.95;;;20.00;46.30;;;;;;5032599;28;20043;-72
2022/04/19 05:46:03;;;;;;;2.88;2.08;;;20.00;45.50;;;;;;5069478;28;20134;-71
2022/04/19 05:48:29;;;;;;;2.28;1.85;;;20.00;45.50;;;;;;5054637;28;20040;-72
2022/04/19 05:50:54;;;;;;;2.15;1.90;;;20.00;45.50;;;;;;5056963;28;20131;-72
2022/04/19 05:53:20;;;;;;;3.83;1.92;;;20.00;45.50;;;;;;5049089;28;20131;-72
2022/04/19 05:55:46;;;;;;;3.47;1.90;;;20.10;45.70;;;;;;5041853;28;20058;-72
2022/04/19 05:58:11;;;;;;;2.88;1.88;;;20.10;45.90;;;;;;5070240;28;20761;-72
2022/04/19 06:00:37;;;;;;;2.05;1.60;;;20.10;45.90;;;;;;5019425;28;21027;-74
2022/04/19 06:05:48;;;;;;;2.47;1.83;;;20.10;46.10;;;;;;5061537;28;20072;-72
2022/04/19 06:08:14;;;;;;;3.90;1.67;;;20.10;46.10;;;;;;5046260;28;20072;-72
2022/04/19 06:10:40;;;;;;;4.72;1.92;;;20.20;46.20;;;;;;5054586;28;20049;-72
2022/04/19 06:13:07;;;;;;;2.83;2.17;;;20.20;46.30;;;;;;5047530;28;20052;-74
2022/04/19 06:15:32;;;;;;;2.50;1.73;;;20.20;46.40;;;;;;5063956;28;20106;-74
2022/04/19 06:17:58;;;;;;;2.72;1.80;;;20.30;46.50;;;;;;5048377;28;20036;-71
2022/04/19 06:20:24;;;;;;;3.17;1.77;;;20.30;46.60;;;;;;5052830;28;20044;-72
2022/04/19 06:22:50;;;;;;;2.45;1.90;;;20.30;46.70;;;;;;5032745;28;20553;-73
2022/04/19 06:25:16;;;;;;;3.17;1.80;;;20.30;46.80;;;;;;5046009;28;20036;-73
2022/04/19 06:27:41;;;;;;;4.15;1.80;;;20.40;46.80;;;;;;5057356;28;20055;-73
2022/04/19 06:30:07;;;;;;;2.95;1.90;;;20.40;46.90;;;;;;5050671;28;20368;-74
2022/04/19 06:32:33;;;;;;;3.15;1.80;;;20.40;46.90;;;;;;5046313;28;20075;-73
2022/04/19 06:34:58;;;;;;;2.53;1.77;;;20.40;47.00;;;;;;5051619;28;20119;-74
2022/04/19 06:37:25;;;;;;;2.03;1.67;;;20.50;47.10;;;;;;5054183;28;20075;-73
2022/04/19 06:39:50;;;;;;;2.22;2.00;;;20.50;47.20;;;;;;5070831;28;20165;-73
2022/04/19 06:42:16;;;;;;;3.05;2.00;;;20.50;47.20;;;;;;5042513;28;20677;-74
2022/04/19 06:44:42;;;;;;;3.22;1.80;;;20.60;47.30;;;;;;5080680;28;20700;-71
2022/04/19 06:47:07;;;;;;;1.95;1.70;;;20.60;47.30;;;;;;5040221;28;20136;-72
2022/04/19 06:49:33;;;;;;;3.75;2.00;;;20.70;47.40;;;;;;5052381;28;20117;-72
2022/04/19 06:51:59;;;;;;;2.92;1.67;;;20.70;47.30;;;;;;5051512;28;20053;-74
2022/04/19 06:54:25;;;;;;;4.32;1.80;;;20.80;47.30;;;;;;5034538;28;20067;-73
2022/04/19 06:56:53;;;;;;;3.97;1.90;;;20.80;47.20;;;;;;5072430;28;20044;-74
2022/04/19 06:59:21;;;;;;;4.72;2.00;;;20.80;47.00;;;;;;5047867;28;20233;-74
2022/04/19 07:01:46;;;;;;;3.80;1.60;;;20.90;47.20;;;;;;5037745;28;20055;-74
2022/04/19 07:04:12;;;;;;;7.80;1.80;;;20.90;47.30;;;;;;5076055;28;20048;-73
2022/04/19 07:06:38;;;;;;;4.97;1.95;;;20.90;47.50;;;;;;5053421;28;20040;-76
2022/04/19 07:09:04;;;;;;;2.78;1.73;;;20.90;47.60;;;;;;5053888;28;20499;-73
2022/04/19 07:11:30;;;;;;;6.80;2.05;;;21.00;47.70;;;;;;5070102;28;20083;-74
2022/04/19 07:13:55;;;;;;;4.05;1.85;;;21.00;47.70;;;;;;5054092;28;20044;-75
2022/04/19 07:16:21;;;;;;;3.75;1.67;;;21.00;47.70;;;;;;5061891;28;20444;-77
2022/04/19 07:18:47;;;;;;;2.28;1.77;;;21.00;47.80;;;;;;5057467;28;20033;-74
2022/04/19 07:26:41;;;;;;;2.47;1.70;;;21.10;47.80;;;;;;5051922;28;20048;-73
2022/04/19 07:29:10;;;;;;;3.67;1.75;;;21.10;47.70;;;;;;5054836;28;20079;-73
2022/04/19 07:31:41;;;;;;;5.53;1.70;;;21.10;47.80;;;;;;5052453;28;21209;-76
2022/04/19 07:34:07;;;;;;;2.30;1.80;;;21.10;48.40;;;;;;5053545;28;20089;-76
2022/04/19 07:36:39;;;;;;;3.60;1.63;;;21.10;47.70;;;;;;5034280;28;20056;-74
2022/04/19 07:39:05;;;;;;;5.45;1.92;;;21.20;47.70;;;;;;5051617;28;20047;-75
2022/04/19 07:41:31;;;;;;;4.20;1.88;;;21.20;47.80;;;;;;5040893;28;20052;-73
2022/04/19 07:43:57;;;;;;;2.58;1.60;;;21.20;47.70;;;;;;5053720;28;20537;-73
2022/04/19 07:46:24;;;;;;;5.68;1.80;;;21.20;47.70;;;;;;5060946;28;20604;-75
2022/04/19 07:48:51;;;;;;;2.92;1.70;;;21.30;47.80;;;;;;5059898;28;20048;-75
2022/04/19 07:51:18;;;;;;;1.98;1.45;;;21.30;47.80;;;;;;5075364;28;20047;-75
2022/04/19 07:53:44;;;;;;;3.42;1.45;;;21.30;47.80;;;;;;5070755;28;20673;-75
2022/04/19 07:56:10;;;;;;;3.90;1.42;;;21.30;47.70;;;;;;5041013;28;20082;-73
2022/04/19 07:58:36;;;;;;;2.45;1.45;;;21.30;47.70;;;;;;5069562;28;20067;-74
2022/04/19 08:01:02;;;;;;;4.43;1.70;;;21.30;47.70;;;;;;5072312;28;20040;-75
2022/04/19 08:03:29;;;;;;;5.38;1.60;;;21.40;47.70;;;;;;5050051;28;20040;-74
2022/04/19 08:05:56;;;;;;;2.53;1.70;;;21.40;47.70;;;;;;5057429;28;20443;-78
2022/04/19 08:08:22;;;;;;;5.25;1.77;;;21.40;47.60;;;;;;5044860;28;20052;-75
2022/04/19 08:10:49;;;;;;;4.35;2.28;;;21.40;47.50;;;;;;5068677;28;20032;-76
2022/04/19 08:13:15;;;;;;;1.65;1.50;;;21.40;47.50;;;;;;5065471;28;20574;-76
2022/04/19 08:15:40;;;;;;;6.07;1.58;;;21.40;47.50;;;;;;5069974;28;20047;-76
2022/04/19 08:18:06;;;;;;;3.05;1.70;;;21.40;47.50;;;;;;5064369;28;20048;-72
2022/04/19 08:20:32;;;;;;;1.85;1.55;;;21.40;47.40;;;;;;5041398;28;20040;-72
2022/04/19 08:22:58;;;;;;;4.00;1.52;;;21.40;47.40;;;;;;5046980;28;20036;-71
2022/04/19 08:25:24;;;;;;;3.08;1.50;;;21.40;47.40;;;;;;5048385;28;20744;-73
2022/04/19 08:27:50;;;;;;;4.97;1.33;;;21.50;47.50;;;;;;5048467;28;20044;-71
2022/04/19 08:30:18;;;;;;;2.38;1.38;;;21.50;47.40;;;;;;5042044;28;20091;-76
2022/04/19 08:32:45;;;;;;;5.43;1.80;;;21.50;47.40;;;;;;5048329;28;20403;-77
2022/04/19 08:35:12;;;;;;;5.00;1.52;;;21.50;47.40;;;;;;5036276;28;20458;-74
2022/04/19 08:37:38;;;;;;;5.78;1.40;;;21.50;47.30;;;;;;5056347;28;20036;-74
2022/04/19 08:40:10;;;;;;;4.68;1.58;;;21.50;47.20;;;;;;5047096;28;20049;-74
2022/04/19 08:42:38;;;;;;;3.22;1.45;;;21.50;47.30;;;;;;5056010;28;20048;-74
2022/04/19 08:45:05;;;;;;;2.83;1.63;;;21.50;48.00;;;;;;5063367;28;20036;-74
2022/04/19 08:47:32;;;;;;;3.97;1.42;;;21.60;47.10;;;;;;5043817;28;20442;-75
2022/04/19 08:50:01;;;;;;;2.88;1.48;;;21.60;47.00;;;;;;5031727;28;20044;-74
2022/04/19 08:52:28;;;;;;;4.20;1.60;;;21.60;46.90;;;;;;5053609;28;20051;-74
2022/04/19 08:57:39;;;;;;;2.15;1.40;;;21.60;46.80;;;;;;5043694;28;20135;-75
2022/04/19 09:00:06;;;;;;;4.88;1.40;;;21.60;46.70;;;;;;5067514;28;20028;-74
2022/04/19 09:02:33;;;;;;;4.53;1.60;;;21.60;46.70;;;;;;5070468;28;20055;-76
2022/04/19 09:05:13;;;;;;;2.42;1.40;;;21.60;47.40;;;;;;5051050;28;20055;-74
2022/04/19 09:07:40;;;;;;;2.75;1.17;;;21.60;46.40;;;;;;5050497;28;20158;-74
2022/04/19 09:10:06;;;;;;;4.40;1.63;;;21.60;46.40;;;;;;5056095;28;20649;-75
2022/04/19 09:12:32;;;;;;;4.13;1.67;;;21.60;46.30;;;;;;5050243;28;20055;-74
2022/04/19 09:15:00;;;;;;;3.30;1.60;;;21.60;46.20;;;;;;5052571;28;20036;-75
2022/04/19 09:17:38;;;;;;;3.67;1.60;;;21.60;46.10;;;;;;5052973;28;20056;-73
2022/04/19 09:20:18;;;;;;;5.93;1.73;;;21.60;46.00;;;;;;5051732;28;20093;-75
2022/04/19 09:22:44;;;;;;;5.85;1.42;;;21.60;45.90;;;;;;5056646;28;20032;-75
2022/04/19 09:25:24;;;;;;;4.88;1.30;;;21.60;45.90;;;;;;5053722;28;20054;-74
2022/04/19 09:27:51;;;;;;;5.35;1.45;;;21.60;45.80;;;;;;5051847;28;20077;-74
2022/04/19 09:30:22;;;;;;;3.33;1.27;;;21.60;45.80;;;;;;5031587;28;20175;-76
2022/04/19 09:33:08;;;;;;;7.10;1.83;;;21.70;45.80;;;;;;5033714;28;20041;-74
2022/04/19 09:35:55;;;;;;;2.25;1.30;;;21.70;45.60;;;;;;5040037;28;20048;-77
2022/04/19 09:38:46;;;;;;;5.88;1.48;;;21.70;45.60;;;;;;5030547;28;20801;-75
2022/04/19 09:41:29;;;;;;;3.70;1.40;;;21.70;45.50;;;;;;5053142;28;20053;-77
2022/04/19 09:44:08;;;;;;;3.70;1.50;;;21.70;45.40;;;;;;5053047;28;20125;-74
2022/04/19 09:46:36;;;;;;;5.22;1.70;;;21.70;45.40;;;;;;5039022;28;20078;-76
2022/04/19 09:49:02;;;;;;;5.82;1.77;;;21.70;45.40;;;;;;5070850;28;20075;-77
2022/04/19 09:51:32;;;;;;;5.30;1.55;;;21.70;45.30;;;;;;5052708;28;20398;-76
2022/04/19 09:53:58;;;;;;;6.22;1.30;;;21.70;45.20;;;;;;5060477;28;20054;-78
2022/04/19 09:56:33;;;;;;;8.20;1.60;;;21.80;45.20;;;;;;5057984;28;20119;-77
2022/04/19 09:59:01;;;;;;;4.65;1.40;;;21.80;45.10;;;;;;5053800;28;20087;-77
2022/04/19 10:09:31;;;;;;;7.65;1.60;;;21.80;44.80;;;;;;5053165;28;20048;-75
2022/04/19 10:11:57;;;;;;;5.72;1.35;;;21.90;44.90;;;;;;5061399;28;20127;-75
2022/04/19 10:14:23;;;;;;;7.13;1.45;;;21.90;45.60;;;;;;5053440;28;20052;-75
2022/04/19 10:16:49;;;;;;;6.68;1.50;;;21.90;44.80;;;;;;5068139;28;20565;-74
2022/04/19 10:19:16;;;;;;;4.97;1.52;;;21.90;44.80;;;;;;5056261;28;20242;-76
2022/04/19 10:21:44;;;;;;;7.10;1.33;;;21.90;44.80;;;;;;5050043;28;20816;-74
2022/04/19 10:24:10;;;;;;;3.63;1.88;;;21.90;44.70;;;;;;5048426;28;20055;-76
2022/04/19 10:26:43;;;;;;;3.55;1.45;;;21.90;44.60;;;;;;5073398;28;20500;-75
2022/04/19 10:29:26;;;;;;;4.13;1.55;;;21.90;44.50;;;;;;5051962;28;20044;-73
2022/04/19 10:32:01;;;;;;;9.93;1.67;;;21.90;44.30;;;;;;5067052;28;20048;-76
2022/04/19 10:34:28;;;;;;;6.15;1.35;;;21.90;44.10;;;;;;5046253;28;20618;-73
2022/04/19 10:36:57;;;;;;;4.50;1.60;;;21.90;44.00;;;;;;5046987;28;20136;-72
2022/04/19 10:39:24;;;;;;;2.38;1.23;;;21.90;43.70;;;;;;5029976;28;20570;-76
2022/04/19 10:42:00;;;;;;;4.82;1.70;;;21.90;43.60;;;;;;5033272;28;20055;-80
2022/04/19 10:44:28;;;;;;;3.15;1.40;;;21.90;43.40;;;;;;5054071;28;20136;-76
2022/04/19 10:47:20;;;;;;;5.30;1.33;;;21.90;43.40;;;;;;5071955;28;20523;-73
2022/04/19 10:49:59;;;;;;;6.07;1.58;;;21.80;43.00;;;;;;5064445;28;20032;-77
2022/04/19 10:52:48;;;;;;;5.47;1.50;;;21.90;42.90;;;;;;5053599;28;20044;-74
2022/04/19 10:55:17;;;;;;;3.22;1.40;;;21.90;42.80;;;;;;5047702;28;20083;-72
2022/04/19 10:58:06;;;;;;;6.13;1.40;;;21.80;42.90;;;;;;5055767;28;20044;-74
2022/04/19 11:00:35;;;;;;;5.68;1.40;;;21.80;42.80;;;;;;5077571;28;20123;-76
2022/04/19 11:03:02;;;;;;;;;;;21.80;42.80;;;;;;5030706;28;20055;-74
2022/04/19 11:05:42;;;;;;;3.22;1.50;;;21.80;42.80;;;;;;5059779;28;19927;-75
2022/04/19 11:08:26;;;;;;;3.55;1.30;;;21.80;42.80;;;;;;5047539;28;20056;-74
2022/04/19 11:10:58;;;;;;;1.50;1.20;;;21.80;42.70;;;;;;5066063;28;20488;-73
2022/04/19 11:13:23;;;;;;;3.42;1.20;;;21.80;42.70;;;;;;5036843;28;20390;-73
2022/04/19 11:16:05;;;;;;;4.38;1.50;;;21.70;42.60;;;;;;5049373;28;20051;-73
2022/04/19 11:18:53;;;;;;;2.92;1.10;;;21.70;42.20;;;;;;5052660;28;20063;-73
2022/04/19 11:21:39;;;;;;;;;;;21.70;42.10;;;;;;5068226;28;20043;-73
2022/04/19 11:24:04;;;;;;;;;;;21.70;42.00;;;;;;5053237;28;19924;-73
2022/04/19 11:26:30;;;;;;;;;;;21.70;42.00;;;;;;5067388;28;19931;-72
2022/04/19 11:29:17;;;;;;;;;;;21.70;41.90;;;;;;5052203;28;20422;-74
2022/04/19 11:31:43;;;;;;;;;;;21.70;41.90;;;;;;5067366;28;20148;-74
2022/04/19 11:34:12;;;;;;;;;;;21.70;41.90;;;;;;5052065;28;20125;-74
2022/04/19 11:36:37;;;;;;;;;;;21.60;41.80;;;;;;5041368;28;19935;-77
2022/04/19 11:39:03;;;;;;;;;;;21.60;42.00;;;;;;5054972;28;19923;-77
2022/04/19 11:46:44;;;;;;;;;;;21.60;42.30;;;;;;5054651;28;20023;-76
2022/04/19 11:47:03;;;;;;;;;;;21.60;42.30;;;;;;5048795;28;20019;-76
2022/04/19 11:49:29;;;;;;;;;;;21.60;42.40;;;;;;5070705;28;20027;-74
2022/04/19 11:51:56;;;;;;;;;;;21.60;42.50;;;;;;5068141;28;20272;-76
2022/04/19 11:54:23;;;;;;;;;;;21.60;42.00;;;;;;5049415;28;19924;-76
2022/04/19 11:56:58;;;;;;;;;;;21.60;41.80;;;;;;5067149;28;20284;-75
2022/04/19 11:59:44;;;;;;;;;;;21.60;41.70;;;;;;5049305;28;19927;-75
2022/04/19 12:02:17;;;;;;;;;;;21.60;41.70;;;;;;5050877;28;19971;-75
2022/04/19 12:04:50;;;;;;;;;;;21.60;41.60;;;;;;5052265;28;19924;-75
2022/04/19 12:07:16;;;;;;;;;;;21.60;41.60;;;;;;5066796;28;19927;-75
2022/04/19 12:09:43;;;;;;;;;;;21.60;41.60;;;;;;5051733;28;20021;-76
2022/04/19 12:12:10;;;;;;;;;;;21.60;41.50;;;;;;5066102;28;19924;-74
2022/04/19 12:14:36;;;;;;;;;;;21.70;41.60;;;;;;5051231;28;20034;-78
2022/04/19 12:17:02;;;;;;;;;;;21.70;42.40;;;;;;5061534;28;20011;-75
2022/04/19 12:19:46;;;;;;;;;;;21.70;41.50;;;;;;5068182;28;19924;-75
2022/04/19 12:22:19;;;;;;;;;;;21.70;41.40;;;;;;5067989;28;19920;-75
2022/04/19 12:24:45;;;;;;;;;;;21.70;41.30;;;;;;5051882;28;19924;-76
2022/04/19 12:27:11;;;;;;;;;;;21.70;41.30;;;;;;5068534;28;19977;-79
2022/04/19 12:29:37;;;;;;;;;;;21.70;41.20;;;;;;5068557;28;19920;-75
2022/04/19 12:32:04;;;;;;;;;;;21.70;41.20;;;;;;5068218;28;20628;-76
2022/04/19 12:34:36;;;;;;;;;;;21.70;42.00;;;;;;5068568;28;20430;-77
2022/04/19 12:37:06;;;;;;;;;;;21.70;41.10;;;;;;5067346;28;19985;-76
2022/04/19 12:39:32;;;;;;;;;;;21.80;41.20;;;;;;5068671;28;19939;-76
2022/04/19 12:42:07;;;;;;;;;;;21.80;41.30;;;;;;5066702;28;19920;-75
2022/04/19 12:44:35;;;;;;;;;;;21.80;41.10;;;;;;5052049;28;19920;-75
2022/04/19 12:47:03;;;;;;;;;;;21.80;41.10;;;;;;5068797;28;20432;-75
2022/04/19 12:49:30;;;;;;;;;;;21.80;41.10;;;;;;5050947;28;19986;-75
2022/04/19 12:52:05;;;;;;;;;;;21.80;41.10;;;;;;5051061;28;19923;-75
2022/04/19 12:54:32;;;;;;;;;;;21.90;41.20;;;;;;5067205;28;20302;-76
2022/04/19 12:57:02;;;;;;;;;;;21.90;41.00;;;;;;5068031;28;20395;-76
2022/04/19 12:59:29;;;;;;;;;;;21.90;41.20;;;;;;5067192;28;19924;-74
2022/04/19 13:01:54;;;;;;;;;;;21.90;41.10;;;;;;5051922;28;19927;-76
2022/04/19 13:04:20;;;;;;;;;;;21.90;41.10;;;;;;5067677;28;20303;-75
2022/04/19 13:12:17;;;;;;;;;;;21.90;41.20;;;;;;5066426;28;19920;-76
2022/04/19 13:14:43;;;;;;;;;;;22.00;41.20;;;;;;5068818;28;19924;-75
2022/04/19 13:17:11;;;;;;;;;;;22.00;41.30;;;;;;5068252;28;20390;-75
2022/04/19 13:19:37;;;;;;;;;;;22.00;41.30;;;;;;5052070;28;19920;-75
2022/04/19 13:22:02;;;;;;;;;;;22.00;41.80;;;;;;5055062;28;20413;-76
2022/04/19 13:24:28;;;;;;;;;;;22.00;41.20;;;;;;5070740;28;19924;-75
2022/04/19 13:26:54;;;;;;;;;;;22.00;41.20;;;;;;5071113;28;19967;-76
2022/04/19 13:29:19;;;;;;;;;;;22.00;41.30;;;;;;5070827;28;20321;-76
2022/04/19 13:31:44;;;;;;;;;;;22.00;41.10;;;;;;5090098;28;19965;-75
2022/04/19 13:34:10;;;;;;;;;;;22.00;41.20;;;;;;5070993;28;19963;-75
2022/04/19 13:36:35;;;;;;;;;;;22.10;41.20;;;;;;5071723;28;19923;-75
2022/04/19 13:39:01;;;;;;;;;;;22.10;41.20;;;;;;5071181;28;19947;-74
2022/04/19 13:41:26;;;;;;;;;;;22.00;41.30;;;;;;5070778;28;20390;-75
2022/04/19 13:43:52;;;;;;;;;;;22.10;41.20;;;;;;5071660;28;19972;-73